createdAt,value
2023-03-11T00:00:55.448Z,82.77
2023-03-11T00:03:25.667Z,82.79
2023-03-11T00:05:53.535Z,83.20
2023-03-11T00:08:24.859Z,83.58
2023-03-11T00:10:55.331Z,84.21
2023-03-11T00:13:22.101Z,84.05
2023-03-11T00:15:51.809Z,84.92
2023-03-11T00:18:18.853Z,86.24
2023-03-11T00:20:46.859Z,86.72
2023-03-11T00:23:14.863Z,88.49
2023-03-11T00:25:43.906Z,88.78
2023-03-11T00:28:11.211Z,89.83
2023-03-11T00:30:39.243Z,89.97
2023-03-11T00:33:06.698Z,90.43
2023-03-11T00:35:34.158Z,91.17
2023-03-11T00:38:03.409Z,91.17
2023-03-11T00:40:31.510Z,92.10
2023-03-11T00:42:58.441Z,92.63
2023-03-11T00:45:25.857Z,93.69
2023-03-11T00:47:53.427Z,94.12
2023-03-11T00:50:23.204Z,94.26
2023-03-11T00:52:50.551Z,92.48
2023-03-11T00:55:21.880Z,92.31
2023-03-11T00:57:51.265Z,92.77
2023-03-11T01:00:20.327Z,92.70
2023-03-11T01:02:46.999Z,92.42
2023-03-11T01:05:14.551Z,93.30
2023-03-11T01:07:41.785Z,93.65
2023-03-11T01:10:09.477Z,94.17
2023-03-11T01:12:36.138Z,92.42
2023-03-11T01:15:03.817Z,93.19
2023-03-11T01:17:30.387Z,92.02
2023-03-11T01:19:56.933Z,93.63
2023-03-11T01:22:23.706Z,93.59
2023-03-11T01:24:50.247Z,92.80
2023-03-11T01:27:16.985Z,94.18
2023-03-11T01:29:43.475Z,93.98
2023-03-11T01:32:11.200Z,92.99
2023-03-11T01:34:37.853Z,93.45
2023-03-11T01:37:04.454Z,94.54
2023-03-11T01:39:31.041Z,92.96
2023-03-11T01:41:58.008Z,93.69
2023-03-11T01:44:24.596Z,93.51
2023-03-11T01:46:54.176Z,93.70
2023-03-11T01:49:22.318Z,93.32
2023-03-11T01:51:52.138Z,93.53
2023-03-11T01:54:25.905Z,94.04
2023-03-11T01:56:53.155Z,93.66
2023-03-11T01:59:23.998Z,94.08
2023-03-11T02:02:04.797Z,93.45
2023-03-11T02:04:34.392Z,94.07
2023-03-11T02:07:02.045Z,94.07
2023-03-11T02:09:28.546Z,92.70
2023-03-11T02:11:56.435Z,94.01
2023-03-11T02:14:24.697Z,95.46
2023-03-11T02:16:51.262Z,95.08
2023-03-11T02:19:32.298Z,94.98
2023-03-11T02:21:59.413Z,94.72
2023-03-11T02:24:30.931Z,95.00
2023-03-11T02:27:01.544Z,94.23
2023-03-11T02:29:29.343Z,93.73
2023-03-11T02:32:01.495Z,94.21
2023-03-11T02:34:30.881Z,94.93
2023-03-11T02:36:59.064Z,94.39
2023-03-11T02:39:34.271Z,94.77
2023-03-11T02:42:04.756Z,95.04
2023-03-11T02:44:31.548Z,95.51
2023-03-11T02:46:58.130Z,95.84
2023-03-11T02:49:24.724Z,93.77
2023-03-11T02:51:52.262Z,94.29
2023-03-11T02:54:18.785Z,94.49
2023-03-11T02:56:45.297Z,95.71
2023-03-11T02:59:11.761Z,94.13
2023-03-11T03:01:38.247Z,93.93
2023-03-11T03:04:05.057Z,94.78
2023-03-11T03:06:31.621Z,94.42
2023-03-11T03:08:58.175Z,94.88
2023-03-11T03:11:24.713Z,95.68
2023-03-11T03:13:51.254Z,94.92
2023-03-11T03:16:18.021Z,95.38
2023-03-11T03:18:44.619Z,94.61
2023-03-11T03:21:11.201Z,94.75
2023-03-11T03:23:37.875Z,95.79
2023-03-11T03:26:05.888Z,95.32
2023-03-11T03:28:32.836Z,96.26
2023-03-11T03:31:07.643Z,96.84
2023-03-11T03:33:34.173Z,97.00
2023-03-11T03:36:01.058Z,95.92
2023-03-11T03:38:27.615Z,95.38
2023-03-11T03:40:54.308Z,96.31
2023-03-11T03:43:20.861Z,96.72
2023-03-11T03:45:58.604Z,96.17
2023-03-11T03:48:25.391Z,95.52
2023-03-11T03:50:51.946Z,95.09
2023-03-11T03:53:18.906Z,95.13
2023-03-11T03:55:45.614Z,94.46
2023-03-11T03:58:12.405Z,95.63
2023-03-11T04:00:39.574Z,95.45
2023-03-11T04:03:06.895Z,96.76
2023-03-11T04:05:33.557Z,95.56
2023-03-11T04:08:00.669Z,96.24
2023-03-11T04:10:27.357Z,95.32
2023-03-11T04:12:53.831Z,94.19
2023-03-11T04:15:20.471Z,95.26
2023-03-11T04:17:47.006Z,93.97
2023-03-11T04:20:13.535Z,93.67
2023-03-11T04:22:40.097Z,93.99
2023-03-11T04:25:07.208Z,95.20
2023-03-11T04:27:33.875Z,94.79
2023-03-11T04:30:00.383Z,96.24
2023-03-11T04:32:27.089Z,96.41
2023-03-11T04:34:53.720Z,96.69
2023-03-11T04:37:20.202Z,95.68
2023-03-11T04:39:46.851Z,97.21
2023-03-11T04:42:14.244Z,95.56
2023-03-11T04:44:40.762Z,96.72
2023-03-11T04:47:07.377Z,97.67
2023-03-11T04:49:33.908Z,96.14
2023-03-11T04:52:00.444Z,96.21
2023-03-11T04:54:26.986Z,96.54
2023-03-11T04:56:53.660Z,97.58
2023-03-11T04:59:20.163Z,97.33
2023-03-11T05:01:46.740Z,97.66
2023-03-11T05:04:13.301Z,96.90
2023-03-11T05:06:39.802Z,97.06
2023-03-11T05:09:06.551Z,97.92
2023-03-11T05:11:33.038Z,97.73
2023-03-11T05:13:59.563Z,96.85
2023-03-11T05:16:26.136Z,97.26
2023-03-11T05:18:52.596Z,98.24
2023-03-11T05:21:19.051Z,98.07
2023-03-11T05:23:45.602Z,98.67
2023-03-11T05:26:12.471Z,98.28
2023-03-11T05:28:41.936Z,98.56
2023-03-11T05:31:11.496Z,98.73
2023-03-11T05:33:38.027Z,99.01
2023-03-11T05:36:09.183Z,96.35
2023-03-11T05:38:37.218Z,97.47
2023-03-11T05:41:04.073Z,97.86
2023-03-11T05:43:30.658Z,97.11
2023-03-11T05:45:57.143Z,97.01
2023-03-11T05:48:23.698Z,97.89
2023-03-11T05:50:50.256Z,97.46
2023-03-11T05:53:16.762Z,97.25
2023-03-11T05:55:43.329Z,96.84
2023-03-11T05:58:09.933Z,97.33
2023-03-11T06:00:36.912Z,97.56
2023-03-11T06:03:03.543Z,97.85
2023-03-11T06:05:30.098Z,98.26
2023-03-11T06:07:56.599Z,97.93
2023-03-11T06:10:23.200Z,97.34
2023-03-11T06:12:49.731Z,96.80
2023-03-11T06:15:16.367Z,97.72
2023-03-11T06:17:42.856Z,97.84
2023-03-11T06:20:10.111Z,97.47
2023-03-11T06:22:38.410Z,96.39
2023-03-11T06:25:06.975Z,98.05
2023-03-11T06:27:33.450Z,96.92
2023-03-11T06:29:59.953Z,96.16
2023-03-11T06:32:26.488Z,96.18
2023-03-11T06:34:53.601Z,96.15
2023-03-11T06:37:21.098Z,95.27
2023-03-11T06:39:47.597Z,94.81
2023-03-11T06:42:14.208Z,94.71
2023-03-11T06:44:40.749Z,95.90
2023-03-11T06:47:07.302Z,95.09
2023-03-11T06:49:33.818Z,94.44
2023-03-11T06:52:00.327Z,94.51
2023-03-11T06:54:26.801Z,93.66
2023-03-11T06:56:53.274Z,93.58
2023-03-11T06:59:19.861Z,94.46
2023-03-11T07:01:46.457Z,95.70
2023-03-11T07:04:13.128Z,93.99
2023-03-11T07:06:41.830Z,95.23
2023-03-11T07:09:08.346Z,96.12
2023-03-11T07:11:34.828Z,96.05
2023-03-11T07:14:01.404Z,95.29
2023-03-11T07:16:29.647Z,96.07
2023-03-11T07:19:01.590Z,95.73
2023-03-11T07:21:28.992Z,96.99
2023-03-11T07:23:57.675Z,96.06
2023-03-11T07:26:25.334Z,96.71
2023-03-11T07:28:53.814Z,96.51
2023-03-11T07:31:23.469Z,96.22
2023-03-11T07:33:50.926Z,95.85
2023-03-11T07:36:20.026Z,95.17
2023-03-11T07:38:47.545Z,94.99
2023-03-11T07:41:16.081Z,94.38
2023-03-11T07:43:43.591Z,94.90
2023-03-11T07:46:16.790Z,93.55
2023-03-11T07:48:43.284Z,95.92
2023-03-11T07:51:15.232Z,95.91
2023-03-11T07:53:42.253Z,95.57
2023-03-11T07:56:10.925Z,95.66
2023-03-11T07:58:38.122Z,96.21
2023-03-11T08:01:10.605Z,96.52
2023-03-11T08:03:38.306Z,96.38
2023-03-11T08:06:23.014Z,95.62
2023-03-11T08:08:50.596Z,96.30
2023-03-11T08:11:17.446Z,96.56
2023-03-11T08:13:47.148Z,97.16
2023-03-11T08:16:16.395Z,96.19
2023-03-11T08:18:43.700Z,96.90
2023-03-11T08:21:16.032Z,97.80
2023-03-11T08:23:43.946Z,97.03
2023-03-11T08:26:13.267Z,97.17
2023-03-11T08:28:40.288Z,95.20
2023-03-11T08:31:18.300Z,96.27
2023-03-11T08:33:46.445Z,96.90
2023-03-11T08:36:13.404Z,95.89
2023-03-11T08:38:40.027Z,96.48
2023-03-11T08:41:06.643Z,96.32
2023-03-11T08:43:33.998Z,97.42
2023-03-11T08:46:02.137Z,97.80
2023-03-11T08:48:29.025Z,96.62
2023-03-11T08:50:56.229Z,95.96
2023-03-11T08:53:23.440Z,96.81
2023-03-11T08:55:51.498Z,95.66
2023-03-11T08:58:18.884Z,93.71
2023-03-11T09:00:45.794Z,94.92
2023-03-11T09:03:13.528Z,95.23
2023-03-11T09:05:40.146Z,95.08
2023-03-11T09:08:06.915Z,93.54
2023-03-11T09:10:33.606Z,95.35
2023-03-11T09:13:00.106Z,93.62
2023-03-11T09:15:26.820Z,93.41
2023-03-11T09:17:54.320Z,94.47
2023-03-11T09:20:21.136Z,93.69
2023-03-11T09:22:50.915Z,92.37
2023-03-11T09:25:17.507Z,90.21
2023-03-11T09:27:44.028Z,88.64
2023-03-11T09:30:36.196Z,87.92
2023-03-11T09:33:07.972Z,89.43
2023-03-11T09:35:41.560Z,89.90
2023-03-11T09:38:15.700Z,89.68
2023-03-11T09:40:55.537Z,86.74
2023-03-11T09:43:53.362Z,88.12
2023-03-11T09:46:28.977Z,86.24
2023-03-11T09:49:03.871Z,83.93
2023-03-11T09:51:36.078Z,85.74
2023-03-11T09:54:18.626Z,86.24
2023-03-11T09:56:45.151Z,87.99
2023-03-11T09:59:30.152Z,86.26
2023-03-11T10:01:56.624Z,81.37
2023-03-11T10:04:57.092Z,86.27
2023-03-11T10:07:36.813Z,85.08
2023-03-11T10:10:03.826Z,86.29
2023-03-11T10:12:42.276Z,85.07
2023-03-11T10:15:19.165Z,84.50
2023-03-11T10:18:00.660Z,85.75
2023-03-11T10:20:32.736Z,83.63
2023-03-11T10:23:37.024Z,84.66
2023-03-11T10:26:15.336Z,81.85
2023-03-11T10:28:51.827Z,81.70
2023-03-11T10:31:34.878Z,84.10
2023-03-11T10:34:06.177Z,82.02
2023-03-11T10:36:40.808Z,80.31
2023-03-11T10:39:10.798Z,80.97
2023-03-11T10:41:47.355Z,80.09
2023-03-11T10:44:23.921Z,78.50
2023-03-11T10:46:50.434Z,78.55
2023-03-11T10:49:18.316Z,79.84
2023-03-11T10:51:50.595Z,78.20
2023-03-11T10:54:25.305Z,80.81
2023-03-11T10:56:55.935Z,74.61
2023-03-11T10:59:29.960Z,79.09
2023-03-11T11:02:02.578Z,74.16
2023-03-11T11:04:34.864Z,76.18
2023-03-11T11:07:35.184Z,77.63
2023-03-11T11:10:19.995Z,75.81
2023-03-11T11:12:52.286Z,74.00
2023-03-11T11:15:30.609Z,72.97
2023-03-11T11:18:19.712Z,73.65
2023-03-11T11:20:58.198Z,72.16
2023-03-11T11:23:27.984Z,74.46
2023-03-11T11:26:04.815Z,72.36
2023-03-11T11:28:33.322Z,70.79
2023-03-11T11:31:20.535Z,72.39
2023-03-11T11:33:53.452Z,74.04
2023-03-11T11:36:24.521Z,71.79
2023-03-11T11:38:53.498Z,72.11
2023-03-11T11:41:22.768Z,68.55
2023-03-11T11:43:58.519Z,72.63
2023-03-11T11:46:38.292Z,74.08
2023-03-11T11:49:28.981Z,68.84
2023-03-11T11:52:05.245Z,68.93
2023-03-11T11:54:57.034Z,70.02
2023-03-11T11:57:24.557Z,67.19
2023-03-11T11:59:51.277Z,69.00
2023-03-11T12:02:34.729Z,72.45
2023-03-11T12:05:22.314Z,71.20
2023-03-11T12:07:54.518Z,71.79
2023-03-11T12:10:37.252Z,68.32
2023-03-11T12:13:14.021Z,69.81
2023-03-11T12:16:00.120Z,67.60
2023-03-11T12:18:36.059Z,64.08
2023-03-11T12:21:16.735Z,65.67
2023-03-11T12:23:55.107Z,64.11
2023-03-11T12:26:24.426Z,64.45
2023-03-11T12:28:59.438Z,63.95
2023-03-11T12:31:30.733Z,60.27
2023-03-11T12:34:03.262Z,62.47
2023-03-11T12:36:32.134Z,62.61
2023-03-11T12:39:01.590Z,64.34
2023-03-11T12:41:39.986Z,65.04
2023-03-11T12:44:28.906Z,63.39
2023-03-11T12:47:03.298Z,62.44
2023-03-11T12:49:35.145Z,62.50
2023-03-11T12:52:08.601Z,62.19
2023-03-11T12:54:35.992Z,59.89
2023-03-11T12:57:05.355Z,59.38
2023-03-11T13:00:17.571Z,59.80
2023-03-11T13:03:17.940Z,56.47
2023-03-11T13:05:44.348Z,57.80
2023-03-11T13:08:33.696Z,59.62
2023-03-11T13:11:00.231Z,58.62
2023-03-11T13:13:32.526Z,57.48
2023-03-11T13:16:19.421Z,57.55
2023-03-11T13:18:48.369Z,58.70
2023-03-11T13:21:27.154Z,61.33
2023-03-11T13:24:18.498Z,61.44
2023-03-11T13:27:11.359Z,61.61
2023-03-11T13:29:57.158Z,60.27
2023-03-11T13:33:02.761Z,62.76
2023-03-11T13:35:47.965Z,63.10
2023-03-11T13:38:37.657Z,61.35
2023-03-11T13:41:13.512Z,59.93
2023-03-11T13:43:46.817Z,60.21
2023-03-11T13:46:38.434Z,60.99
2023-03-11T13:49:32.858Z,63.32
2023-03-11T13:52:01.843Z,61.62
2023-03-11T13:54:35.987Z,60.95
2023-03-11T13:57:03.680Z,61.82
2023-03-11T13:59:32.988Z,62.03
2023-03-11T14:02:03.994Z,61.06
2023-03-11T14:04:33.696Z,63.37
2023-03-11T14:07:11.626Z,65.00
2023-03-11T14:09:38.211Z,64.32
2023-03-11T14:12:07.753Z,62.08
2023-03-11T14:14:56.308Z,62.47
2023-03-11T14:17:22.775Z,62.42
2023-03-11T14:20:07.013Z,61.31
2023-03-11T14:22:34.581Z,60.54
2023-03-11T14:25:08.105Z,60.68
2023-03-11T14:27:35.281Z,60.38
2023-03-11T14:30:01.944Z,62.60
2023-03-11T14:32:34.183Z,62.24
2023-03-11T14:35:01.247Z,63.93
2023-03-11T14:37:37.978Z,62.52
2023-03-11T14:40:39.513Z,61.69
2023-03-11T14:43:08.131Z,62.18
2023-03-11T14:45:37.491Z,63.62
2023-03-11T14:48:14.106Z,61.57
2023-03-11T14:50:42.649Z,62.93
2023-03-11T14:53:24.296Z,64.01
2023-03-11T14:56:09.057Z,62.43
2023-03-11T14:58:43.838Z,61.35
2023-03-11T15:01:21.748Z,58.50
2023-03-11T15:04:15.978Z,59.01
2023-03-11T15:06:43.970Z,61.58
2023-03-11T15:09:14.792Z,61.17
2023-03-11T15:11:55.321Z,59.81
2023-03-11T15:14:25.896Z,59.92
2023-03-11T15:16:53.869Z,58.87
2023-03-11T15:19:29.155Z,59.38
2023-03-11T15:21:59.506Z,61.48
2023-03-11T15:24:28.842Z,61.78
2023-03-11T15:27:07.036Z,61.75
2023-03-11T15:29:34.973Z,61.99
2023-03-11T15:32:30.484Z,61.92
2023-03-11T15:35:21.580Z,61.68
2023-03-11T15:38:10.558Z,61.93
2023-03-11T15:40:45.437Z,60.75
2023-03-11T15:43:15.193Z,63.19
2023-03-11T15:45:43.428Z,62.12
2023-03-11T15:48:11.412Z,61.71
2023-03-11T15:50:53.745Z,60.40
2023-03-11T15:53:21.690Z,62.46
2023-03-11T15:55:49.024Z,63.19
2023-03-11T15:58:18.248Z,61.96
2023-03-11T16:00:51.713Z,61.40
2023-03-11T16:03:18.296Z,61.31
2023-03-11T16:05:45.223Z,62.70
2023-03-11T16:08:11.973Z,65.07
2023-03-11T16:10:39.271Z,66.21
2023-03-11T16:13:06.183Z,66.39
2023-03-11T16:15:35.735Z,66.26
2023-03-11T16:18:05.073Z,67.05
2023-03-11T16:20:36.891Z,65.66
2023-03-11T16:23:03.992Z,65.42
2023-03-11T16:25:36.160Z,66.73
2023-03-11T16:28:03.715Z,66.57
2023-03-11T16:30:32.575Z,66.49
2023-03-11T16:32:59.436Z,68.06
2023-03-11T16:35:27.567Z,66.02
2023-03-11T16:37:54.274Z,65.94
2023-03-11T16:40:25.777Z,67.26
2023-03-11T16:42:57.639Z,68.23
2023-03-11T16:45:24.211Z,69.67
2023-03-11T16:47:50.691Z,67.96
2023-03-11T16:50:17.277Z,68.01
2023-03-11T16:52:43.826Z,69.44
2023-03-11T16:55:10.636Z,67.66
2023-03-11T16:57:38.791Z,69.99
2023-03-11T17:00:07.027Z,68.74
2023-03-11T17:02:33.745Z,68.90
2023-03-11T17:05:00.320Z,67.97
2023-03-11T17:07:27.255Z,69.20
2023-03-11T17:09:53.797Z,70.00
2023-03-11T17:12:20.614Z,70.41
2023-03-11T17:14:47.180Z,69.96
2023-03-11T17:17:13.784Z,70.68
2023-03-11T17:19:40.325Z,71.52
2023-03-11T17:22:06.885Z,72.71
2023-03-11T17:24:34.316Z,72.69
2023-03-11T17:27:00.803Z,73.28
2023-03-11T17:29:27.338Z,74.43
2023-03-11T17:31:53.874Z,73.46
2023-03-11T17:34:20.949Z,73.30
2023-03-11T17:36:47.530Z,74.55
2023-03-11T17:39:14.160Z,73.14
2023-03-11T17:41:40.965Z,73.39
2023-03-11T17:44:07.671Z,71.41
2023-03-11T17:46:36.351Z,73.83
2023-03-11T17:49:03.035Z,73.92
2023-03-11T17:51:29.577Z,75.00
2023-03-11T17:53:56.354Z,75.82
2023-03-11T17:56:23.393Z,75.22
2023-03-11T17:58:50.624Z,75.56
2023-03-11T18:01:20.564Z,75.38
2023-03-11T18:03:47.590Z,76.44
2023-03-11T18:06:14.913Z,75.94
2023-03-11T18:08:41.574Z,75.65
2023-03-11T18:11:10.928Z,76.88
2023-03-11T18:13:38.549Z,76.67
2023-03-11T18:16:12.245Z,76.35
2023-03-11T18:18:39.518Z,78.02
2023-03-11T18:21:08.894Z,77.26
2023-03-11T18:23:35.717Z,77.34
2023-03-11T18:26:05.296Z,77.59
2023-03-11T18:28:31.965Z,77.26
2023-03-11T18:31:06.014Z,78.22
2023-03-11T18:33:32.545Z,77.83
2023-03-11T18:35:59.046Z,78.67
2023-03-11T18:38:26.345Z,77.97
2023-03-11T18:40:58.818Z,79.92
2023-03-11T18:43:25.272Z,79.36
2023-03-11T18:45:51.757Z,79.99
2023-03-11T18:48:18.279Z,79.86
2023-03-11T18:50:51.875Z,80.13
2023-03-11T18:53:19.008Z,79.57
2023-03-11T18:55:45.501Z,79.14
2023-03-11T18:58:11.978Z,80.84
2023-03-11T19:00:38.444Z,80.50
2023-03-11T19:03:05.006Z,80.28
2023-03-11T19:05:31.459Z,82.05
2023-03-11T19:07:57.916Z,86.45
2023-03-11T19:10:24.796Z,80.72
2023-03-11T19:12:51.667Z,78.12
2023-03-11T19:15:18.296Z,78.47
2023-03-11T19:17:51.715Z,79.43
2023-03-11T19:20:22.738Z,79.15
2023-03-11T19:22:49.590Z,80.70
2023-03-11T19:25:16.303Z,79.58
2023-03-11T19:27:42.745Z,80.50
2023-03-11T19:30:09.863Z,81.37
2023-03-11T19:32:36.518Z,81.19
2023-03-11T19:35:03.162Z,81.18
2023-03-11T19:37:30.538Z,81.36
2023-03-11T19:39:57.045Z,81.28
2023-03-11T19:42:23.576Z,81.93
2023-03-11T19:44:50.367Z,82.07
2023-03-11T19:47:16.929Z,81.97
2023-03-11T19:49:44.286Z,81.62
2023-03-11T19:52:11.199Z,82.03
2023-03-11T19:54:37.704Z,83.08
2023-03-11T19:57:04.336Z,81.56
2023-03-11T19:59:31.609Z,81.75
2023-03-11T20:01:58.350Z,80.58
2023-03-11T20:04:24.948Z,81.85
2023-03-11T20:06:51.971Z,80.92
2023-03-11T20:09:19.026Z,79.56
2023-03-11T20:11:45.733Z,80.12
2023-03-11T20:14:13.094Z,79.11
2023-03-11T20:16:40.160Z,79.39
2023-03-11T20:19:07.447Z,78.26
2023-03-11T20:21:38.931Z,79.31
2023-03-11T20:24:05.705Z,79.88
2023-03-11T20:26:32.533Z,80.49
2023-03-11T20:28:59.681Z,80.62
2023-03-11T20:31:27.502Z,79.38
2023-03-11T20:33:54.914Z,79.83
2023-03-11T20:36:24.045Z,79.36
2023-03-11T20:38:52.915Z,80.17
2023-03-11T20:41:20.817Z,80.74
2023-03-11T20:43:47.802Z,81.29
2023-03-11T20:46:14.659Z,81.95
2023-03-11T20:48:41.277Z,82.50
2023-03-11T20:51:11.703Z,82.47
2023-03-11T20:53:39.348Z,80.91
2023-03-11T20:56:09.367Z,80.56
2023-03-11T20:58:36.525Z,81.27
2023-03-11T21:01:19.235Z,79.74
2023-03-11T21:03:46.212Z,80.34
2023-03-11T21:06:21.581Z,79.77
2023-03-11T21:08:48.770Z,79.86
2023-03-11T21:11:16.524Z,80.65
2023-03-11T21:13:43.066Z,80.49
2023-03-11T21:16:10.116Z,83.22
2023-03-11T21:18:37.425Z,83.29
2023-03-11T21:21:08.312Z,82.65
2023-03-11T21:23:35.848Z,82.60
2023-03-11T21:26:04.752Z,80.91
2023-03-11T21:28:33.133Z,81.78
2023-03-11T21:31:04.490Z,84.10
2023-03-11T21:33:31.687Z,84.40
2023-03-11T21:36:00.292Z,83.33
2023-03-11T21:38:27.845Z,82.97
2023-03-11T21:41:04.190Z,83.37
2023-03-11T21:43:30.701Z,83.45
2023-03-11T21:45:57.272Z,84.21
2023-03-11T21:48:23.916Z,83.83
2023-03-11T21:50:51.787Z,83.75
2023-03-11T21:53:18.598Z,85.04
2023-03-11T21:55:47.062Z,84.69
2023-03-11T21:58:14.869Z,84.30
2023-03-11T22:00:41.663Z,84.77
2023-03-11T22:03:08.320Z,86.29
2023-03-11T22:05:36.110Z,86.37
2023-03-11T22:08:02.761Z,85.14
2023-03-11T22:10:31.735Z,84.72
2023-03-11T22:12:58.729Z,85.88
2023-03-11T22:15:25.299Z,86.76
2023-03-11T22:17:51.901Z,86.06
2023-03-11T22:20:18.749Z,86.10
2023-03-11T22:22:45.334Z,86.98
2023-03-11T22:25:11.985Z,85.63
2023-03-11T22:27:40.269Z,86.19
2023-03-11T22:30:08.103Z,85.92
2023-03-11T22:32:35.261Z,85.98
2023-03-11T22:35:01.858Z,87.32
2023-03-11T22:37:28.629Z,86.47
2023-03-11T22:39:55.200Z,87.41
2023-03-11T22:42:21.683Z,86.53
2023-03-11T22:44:48.137Z,87.49
2023-03-11T22:47:14.648Z,87.72
2023-03-11T22:49:41.165Z,87.08
2023-03-11T22:52:07.708Z,87.30
2023-03-11T22:54:34.240Z,87.78
2023-03-11T22:57:00.926Z,88.92
2023-03-11T22:59:30.586Z,89.64
2023-03-11T23:01:57.138Z,90.14
2023-03-11T23:04:23.936Z,90.44
2023-03-11T23:06:50.469Z,90.74
2023-03-11T23:09:17.028Z,91.48
2023-03-11T23:11:43.480Z,91.67
2023-03-11T23:14:09.994Z,91.72
2023-03-11T23:16:36.707Z,91.84
2023-03-11T23:19:03.290Z,92.28
2023-03-11T23:21:32.586Z,92.43
2023-03-11T23:24:00.713Z,94.17
2023-03-11T23:26:28.447Z,93.73
2023-03-11T23:28:55.114Z,95.06
2023-03-11T23:31:23.474Z,93.43
2023-03-11T23:33:50.540Z,93.95
2023-03-11T23:36:20.177Z,95.00
2023-03-11T23:38:53.387Z,95.01
2023-03-11T23:41:21.111Z,94.75
2023-03-11T23:43:47.931Z,95.98
2023-03-11T23:46:15.240Z,95.95
2023-03-11T23:48:41.939Z,95.42
2023-03-11T23:51:09.392Z,95.26
2023-03-11T23:53:43.695Z,95.53
2023-03-11T23:56:13.754Z,95.72
2023-03-11T23:58:41.033Z,96.21
